Ice Star — OUJK2 — position and weather

sailwx.info

Track history (hours):
 
Tides and Currents Weather Stations Pressure Air Temp Water Temp Dewpoint Dewpoint Depression Visibility Wind Speed Wind Dir Waves Ship Positions

Ice Star

Last reported at 2015-Mar-05 11:06 UTC. Time now 2015-Mar-05 16:08 UTC.
Position N 30°33' E 122°48'.

Length 367 m; draft 11.8 m.

Type: Ship. MMSI: 220596000.

Date/timePositionNaut miles runAvg speedWind from/ knotsBaromVisibWave heightAir tempDewpointWater temp
2015-Mar-05 11:06N 30°33' E 122°48'2011.1
2015-Mar-05 09:19N 30°31' E 122°25'1013.1
2015-Mar-05 08:33N 30°33' E 122°14'1010.3
2015-Mar-05 07:33N 30°38' E 122°03'0 0.0
2015-Mar-05 06:32N 30°38' E 122°03'0 0.0
2015-Mar-05 05:32N 30°38' E 122°03'0 0.0
2015-Mar-05 04:07N 30°38' E 122°03'0 0.2
2015-Mar-05 03:22N 30°38' E 122°03'0 0.2
2015-Mar-05 02:29N 30°38' E 122°03'0 0.0
2015-Mar-05 01:32N 30°38' E 122°03'0 0.0
2015-Mar-05 00:32N 30°38' E 122°03'0 0.0
2015-Mar-04 23:32N 30°38' E 122°03'0 0.0
2015-Mar-04 22:32N 30°38' E 122°03'0 0.0
2015-Mar-04 21:32N 30°38' E 122°03'0 0.0
2015-Mar-04 20:32N 30°38' E 122°03'0 0.0
2015-Mar-04 19:32N 30°38' E 122°03'4 3.7
2015-Mar-04 18:34N 30°35' E 122°07'1010.0
2015-Mar-04 17:33N 30°33' E 122°18'10 9.6
2015-Mar-04 16:34N 30°31' E 122°29'5 0.6
2015-Mar-04 09:11N 30°28' E 122°33'0 0.1
2015-Mar-04 08:11N 30°28' E 122°33'0 0.0
2015-Mar-04 05:17N 30°28' E 122°33'0 0.1
2015-Mar-04 04:17N 30°28' E 122°33'1 1.2
2015-Mar-04 03:23N 30°28' E 122°32'4 5.1
2015-Mar-04 02:33N 30°30' E 122°36'39 7.6
2015-Mar-03 21:25N 29°51' E 122°41'1011.5
2015-Mar-03 20:33N 29°45' E 122°32'9 8.6
2015-Mar-03 19:33N 29°43' E 122°22'1211.6
2015-Mar-03 18:34N 29°50' E 122°12'1414.4
2015-Mar-03 17:34N 29°58' E 121°58'7 7.0
2015-Mar-03 16:33N 29°57' E 121°50'0 0.0
2015-Mar-03 15:28N 29°57' E 121°50'0 0.1
2015-Mar-03 14:28N 29°57' E 121°50'0 0.0
2015-Mar-03 13:28N 29°57' E 121°50'0 0.0
2015-Mar-03 12:31N 29°57' E 121°50'0 0.0
2015-Mar-03 11:31N 29°57' E 121°50'0 0.0
2015-Mar-03 10:31N 29°57' E 121°50'0 0.0
2015-Mar-03 09:28N 29°57' E 121°50'0 0.0
2015-Mar-03 08:28N 29°57' E 121°50'0 0.0
2015-Mar-03 07:25N 29°57' E 121°50'0 0.0
2015-Mar-03 06:22N 29°57' E 121°50'0 0.0
2015-Mar-03 05:31N 29°57' E 121°50'0 0.0
2015-Mar-03 04:25N 29°57' E 121°50'0 0.0
2015-Mar-03 03:13N 29°57' E 121°50'0 0.1
2015-Mar-03 02:31N 29°57' E 121°50'1 0.7
2015-Mar-03 01:33N 29°57' E 121°50'9 8.9
2015-Mar-03 00:33N 29°57' E 122°00'1312.9
2015-Mar-02 23:33N 29°50' E 122°13'10 9.9
2015-Mar-02 22:33N 29°44' E 122°22'8 8.2
2015-Mar-02 21:33N 29°39' E 122°29'1414.5
2015-Mar-02 20:34N 29°24' E 122°29'39312.3
2015-Mar-01 12:33N 23°56' E 118°27'1010.0
2015-Mar-01 11:33N 23°49' E 118°19'1110.6
2015-Mar-01 10:33N 23°43' E 118°10'1311.0
2015-Mar-01 09:24N 23°36' E 117°59'1411.1
2015-Mar-01 08:10N 23°26' E 117°48'6010.6
2015-Mar-01 02:28N 22°48' E 116°57'149 7.1
2015-Feb-28 05:33N 22°34' E 114°16'0 0.0
2015-Feb-28 04:21N 22°34' E 114°16'0 0.0
2015-Feb-28 03:10N 22°34' E 114°16'0 0.0
2015-Feb-28 02:15N 22°34' E 114°16'0 0.2
2015-Feb-28 00:07N 22°34' E 114°17'21 8.3
2015-Feb-27 21:33N 22°16' E 114°29'1110.5
2015-Feb-27 20:30N 22°05' E 114°29'9 9.0
2015-Feb-27 19:33N 21°58' E 114°23'  
Track history (hours):
 
Tides and Currents Weather Stations Pressure Air Temp Water Temp Dewpoint Dewpoint Depression Visibility Wind Speed Wind Dir Waves Ship Positions

Ice Star

Last reported at 2015-Mar-05 11:06 UTC. Time now 2015-Mar-05 16:08 UTC.
Position N 30°33' E 122°48'.

Length 367 m; draft 11.8 m.

Type: Ship. MMSI: 220596000.

Date/timePositionNaut miles runAvg speedWind from/ knotsBaromVisibWave heightAir tempDewpointWater temp
2015-Mar-05 11:06N 30°33' E 122°48'2011.1
2015-Mar-05 09:19N 30°31' E 122°25'1013.1
2015-Mar-05 08:33N 30°33' E 122°14'1010.3
2015-Mar-05 07:33N 30°38' E 122°03'0 0.0
2015-Mar-05 06:32N 30°38' E 122°03'0 0.0
2015-Mar-05 05:32N 30°38' E 122°03'0 0.0
2015-Mar-05 04:07N 30°38' E 122°03'0 0.2
2015-Mar-05 03:22N 30°38' E 122°03'0 0.2
2015-Mar-05 02:29N 30°38' E 122°03'0 0.0
2015-Mar-05 01:32N 30°38' E 122°03'0 0.0
2015-Mar-05 00:32N 30°38' E 122°03'0 0.0
2015-Mar-04 23:32N 30°38' E 122°03'0 0.0
2015-Mar-04 22:32N 30°38' E 122°03'0 0.0
2015-Mar-04 21:32N 30°38' E 122°03'0 0.0
2015-Mar-04 20:32N 30°38' E 122°03'0 0.0
2015-Mar-04 19:32N 30°38' E 122°03'4 3.7
2015-Mar-04 18:34N 30°35' E 122°07'1010.0
2015-Mar-04 17:33N 30°33' E 122°18'10 9.6
2015-Mar-04 16:34N 30°31' E 122°29'5 0.6
2015-Mar-04 09:11N 30°28' E 122°33'0 0.1
2015-Mar-04 08:11N 30°28' E 122°33'0 0.0
2015-Mar-04 05:17N 30°28' E 122°33'0 0.1
2015-Mar-04 04:17N 30°28' E 122°33'1 1.2
2015-Mar-04 03:23N 30°28' E 122°32'4 5.1
2015-Mar-04 02:33N 30°30' E 122°36'39 7.6
2015-Mar-03 21:25N 29°51' E 122°41'1011.5
2015-Mar-03 20:33N 29°45' E 122°32'9 8.6
2015-Mar-03 19:33N 29°43' E 122°22'1211.6
2015-Mar-03 18:34N 29°50' E 122°12'1414.4
2015-Mar-03 17:34N 29°58' E 121°58'7 7.0
2015-Mar-03 16:33N 29°57' E 121°50'0 0.0
2015-Mar-03 15:28N 29°57' E 121°50'0 0.1
2015-Mar-03 14:28N 29°57' E 121°50'0 0.0
2015-Mar-03 13:28N 29°57' E 121°50'0 0.0
2015-Mar-03 12:31N 29°57' E 121°50'0 0.0
2015-Mar-03 11:31N 29°57' E 121°50'0 0.0
2015-Mar-03 10:31N 29°57' E 121°50'0 0.0
2015-Mar-03 09:28N 29°57' E 121°50'0 0.0
2015-Mar-03 08:28N 29°57' E 121°50'0 0.0
2015-Mar-03 07:25N 29°57' E 121°50'0 0.0
2015-Mar-03 06:22N 29°57' E 121°50'0 0.0
2015-Mar-03 05:31N 29°57' E 121°50'0 0.0
2015-Mar-03 04:25N 29°57' E 121°50'0 0.0
2015-Mar-03 03:13N 29°57' E 121°50'0 0.1
2015-Mar-03 02:31N 29°57' E 121°50'1 0.7
2015-Mar-03 01:33N 29°57' E 121°50'9 8.9
2015-Mar-03 00:33N 29°57' E 122°00'1312.9
2015-Mar-02 23:33N 29°50' E 122°13'10 9.9
2015-Mar-02 22:33N 29°44' E 122°22'8 8.2
2015-Mar-02 21:33N 29°39' E 122°29'1414.5
2015-Mar-02 20:34N 29°24' E 122°29'39312.3
2015-Mar-01 12:33N 23°56' E 118°27'1010.0
2015-Mar-01 11:33N 23°49' E 118°19'1110.6
2015-Mar-01 10:33N 23°43' E 118°10'1311.0
2015-Mar-01 09:24N 23°36' E 117°59'1411.1
2015-Mar-01 08:10N 23°26' E 117°48'6010.6
2015-Mar-01 02:28N 22°48' E 116°57'149 7.1
2015-Feb-28 05:33N 22°34' E 114°16'0 0.0
2015-Feb-28 04:21N 22°34' E 114°16'0 0.0
2015-Feb-28 03:10N 22°34' E 114°16'0 0.0
2015-Feb-28 02:15N 22°34' E 114°16'0 0.2
2015-Feb-28 00:07N 22°34' E 114°17'21 8.3
2015-Feb-27 21:33N 22°16' E 114°29'1110.5
2015-Feb-27 20:30N 22°05' E 114°29'9 9.0
2015-Feb-27 19:33N 21°58' E 114°23'  

Dump ship's entire track history